• Join FlightAware (Why Join?)
  • Login
  • US Flag 
10:49PM EDT


 

Airport Tracker/Info


-or-


 

Live Flight TrackerFlight Track Log ✈ JZA8145 ✈ 09-May-2013 ✈ CYEG - CYYC

Flight Track Log - Related Links

Times and Time Zones

All times are in EDT time to prevent confusion due to time zone crossing. See the JZA8145 flight status page for this flight to view local times or setup timezone preferences in your user account.

Time Position Orientation Groundspeed Altitude Reporting Facility
EDT Latitude Longitude Course Direction KTS MPH feet Rate Location/Type
03:08PM 53.2667 -113.6000 169° South 140 161 2,900  Level Edmonton Center
03:09PM 53.2333 -113.5333 130° Southeast 150 173 4,400 1,440 Climbing Edmonton Center
03:10PM 53.2000 -113.5000 149° Southeast 150 173 5,800 1,260 Climbing Edmonton Center
03:11PM 53.1500 -113.5167 191° South 180 207 7,000 1,200 Climbing Edmonton Center
03:12PM 53.0408 -113.8080 169° South  Level FlightAware Approximate
03:12PM 53.1000 -113.5167 180° South 190 219 8,200  Level Edmonton Center
03:13PM 52.9699 -113.7844 169° South  Level FlightAware Approximate
03:13PM 53.0500 -113.5333 191° South 200 230 9,600  Level Edmonton Center
03:14PM 53.0000 -113.5167 169° South 200 230 10,900 1,260 Climbing Edmonton Center
03:15PM 52.9333 -113.5333 189° South 200 230 12,200 1,260 Climbing Edmonton Center
03:16PM 52.8667 -113.5500 189° South 210 242 13,500 1,260 Climbing Edmonton Center
03:17PM 52.8000 -113.5333 171° South 210 242 14,800 1,260 Climbing Edmonton Center
03:18PM 52.7500 -113.5500 191° South 220 253 16,100 1,080 Climbing Edmonton Center
03:19PM 52.6833 -113.5333 171° South 210 242 17,000 420 Climbing Edmonton Center
03:20PM 52.6167 -113.5500 189° South 250 288 17,000  Level Edmonton Center
03:21PM 52.5500 -113.5667 189° South 270 311 17,000  Level Edmonton Center
03:22PM 52.4667 -113.5833 187° South 290 334 17,000  Level Edmonton Center
03:23PM 52.3833 -113.5667 173° South 290 334 17,000  Level Edmonton Center
03:24PM 52.3000 -113.5667 180° South 290 334 17,000  Level Edmonton Center
03:25PM 52.2333 -113.5833 189° South 290 334 17,000  Level Edmonton Center
03:26PM 52.1333 -113.6000 186° South 290 334 17,000  Level Edmonton Center
03:27PM 52.0500 -113.6000 180° South 290 334 17,000  Level Edmonton Center
03:28PM 51.9667 -113.5833 173° South 290 334 17,000 -60 Level Edmonton Center
03:29PM 51.8833 -113.6000 187° South 290 334 16,900 -900 Descending Edmonton Center
03:30PM 51.8000 -113.6167 187° South 300 345 15,200 -1,860 Descending Edmonton Center
03:31PM 51.7333 -113.6500 197° South 300 345 13,200 -1,980 Descending Edmonton Center
03:32PM 51.6333 -113.6833 192° South 300 345 11,300 -1,500 Descending Edmonton Center
03:33PM 51.5833 -113.7333 212° Southwest 240 276 10,200 -840 Descending Edmonton Center
03:34PM 51.5333 -113.7667 203° Southwest 210 242 9,700 -600 Descending Edmonton Center
03:35PM 51.4667 -113.8500 218° Southwest 220 253 9,100 -600 Descending Edmonton Center
03:36PM 51.4333 -113.8833 212° Southwest 210 242 8,600 -660 Descending Edmonton Center
03:37PM 51.3833 -113.9333 212° Southwest 220 253 7,800 -720 Descending Edmonton Center
03:38PM 51.3333 -114.0000 220° Southwest 210 242 7,200 -540 Descending Edmonton Center
03:39PM 51.2833 -114.0500 212° Southwest 190 219 6,800 -660 Descending Edmonton Center
03:40PM 51.2333 -114.0333 168° South 200 230 5,900 -900 Descending Edmonton Center